Tver, Russia
Current Conditions -  °F | °C
As of 6:30 PM on Friday 31 Oct 2014 (Local Time) from UUEE Reporting Station
Broken Clouds Broken Clouds  
Wind Chill: 32°   Ceiling: 2000
Heat Index: 36°   Visibility: 6mi
Dew Point: 30°   Wind: 4mph
Humidity: 81%   Direction: 300°WNW
Pressure: 30.12"   Gusts: NA
Location:  56.86°N, 35.89°E
Report Text: UUEE 311530Z 30002MPS 260V330 9999 BKN020 02/M01 Q1020 7500006225190057 NOSIG
Loading
Personal Weather Stations






























Interactive Weather Map
Tropical Storm Tracking
New forecast layout! Learn more

10-Day Weather Forecast

Advertisements
Track Severe Weather on mobile